Time;durP1;ratioP1;P1;durP2;ratioP2;P2;SDS_P1;SDS_P2;PMS_P1;PMS_P2;Temp;Humidity;BMP_temperature;BMP_pressure;BME280_temperature;BME280_humidity;BME280_pressure;Samples;Min_cycle;Max_cycle;Signal;HPM_P1;HPM_P2
2022/04/06 00:01:52;;;;;;;18.75;8.53;;;;;;;4.13;69.88;98753.91;1655487;85;25618;-70
2022/04/06 00:07:12;;;;;;;15.85;9.40;;;;;;;4.10;71.22;98741.13;1668159;84;27666;-68
2022/04/06 00:09:39;;;;;;;15.75;8.88;;;;;;;4.04;71.58;98738.34;1654240;85;25840;-69
2022/04/06 00:12:07;;;;;;;15.63;8.70;;;;;;;4.02;72.66;98737.31;1657674;85;25652;-69
2022/04/06 00:14:36;;;;;;;17.70;9.28;;;;;;;4.00;72.54;98740.84;1657191;85;25806;-69
2022/04/06 00:17:05;;;;;;;20.23;9.85;;;;;;;3.99;73.09;98730.44;1665464;85;25875;-69
2022/04/06 00:19:34;;;;;;;13.58;9.83;;;;;;;3.97;73.07;98726.73;1662172;84;27976;-69
2022/04/06 00:22:01;;;;;;;15.35;9.05;;;;;;;3.96;74.14;98728.36;1671136;84;25604;-70
2022/04/06 00:24:29;;;;;;;15.85;9.83;;;;;;;3.95;74.55;98732.12;1663948;84;25802;-69
2022/04/06 00:26:55;;;;;;;16.48;11.03;;;;;;;3.95;75.12;98730.78;1668421;84;25603;-69
2022/04/06 00:29:22;;;;;;;19.70;12.20;;;;;;;3.96;75.11;98721.67;1657887;84;25807;-70
2022/04/06 00:31:48;;;;;;;20.80;10.80;;;;;;;3.97;75.31;98726.73;1662959;84;27324;-69
2022/04/06 00:34:14;;;;;;;18.10;10.80;;;;;;;4.01;76.51;98728.25;1656577;85;32391;-69
2022/04/06 00:36:41;;;;;;;20.85;11.15;;;;;;;4.02;76.27;98737.31;1661083;85;25419;-70
2022/04/06 00:39:07;;;;;;;19.65;11.18;;;;;;;4.04;76.24;98731.66;1666578;84;25841;-70
2022/04/06 00:41:34;;;;;;;15.75;10.72;;;;;;;4.06;76.18;98732.14;1656048;84;25687;-70
2022/04/06 00:44:16;;;;;;;16.93;10.25;;;;;;;4.11;76.36;98732.02;1667579;85;27283;-70
2022/04/06 00:46:45;;;;;;;17.17;10.93;;;;;;;4.14;76.64;98722.05;1659902;84;25851;-70
2022/04/06 00:49:14;;;;;;;18.20;11.20;;;;;;;4.16;77.25;98727.10;1653192;85;25490;-69
2022/04/06 00:51:44;;;;;;;17.37;12.25;;;;;;;4.19;77.37;98734.50;1661357;85;25742;-70
2022/04/06 00:54:14;;;;;;;21.50;11.65;;;;;;;4.21;77.64;98740.36;1674311;84;25561;-70
2022/04/06 00:56:43;;;;;;;18.50;11.73;;;;;;;4.24;78.15;98726.34;1658659;84;27332;-70
2022/04/06 00:59:10;;;;;;;16.62;11.12;;;;;;;4.28;78.83;98727.34;1654857;85;25803;-70
2022/04/06 01:01:37;;;;;;;18.32;11.73;;;;;;;4.34;78.74;98726.66;1658245;85;25562;-70
2022/04/06 01:04:05;;;;;;;17.25;9.98;;;;;;;4.37;79.05;98726.05;1655577;85;25913;-69
2022/04/06 01:06:31;;;;;;;17.73;11.57;;;;;;;4.40;79.86;98726.78;1653540;85;25984;-69
2022/04/06 01:08:58;;;;;;;19.20;12.30;;;;;;;4.41;78.68;98714.43;1632037;86;27325;-69
2022/04/06 01:11:24;;;;;;;18.30;11.30;;;;;;;4.46;79.14;98713.49;1627983;87;25707;-70
2022/04/06 01:13:53;;;;;;;17.42;11.60;;;;;;;4.49;79.24;98719.05;1626003;87;25775;-70
2022/04/06 01:16:19;;;;;;;22.82;12.05;;;;;;;4.53;79.87;98723.23;1662569;84;25808;-70
2022/04/06 01:18:46;;;;;;;16.97;12.18;;;;;;;4.58;79.33;98726.31;1664390;84;25544;-70
2022/04/06 01:21:13;;;;;;;18.75;12.05;;;;;;;4.61;80.36;98730.50;1662311;84;27374;-70
2022/04/06 01:23:42;;;;;;;15.48;11.43;;;;;;;4.65;80.51;98726.69;1653313;85;25799;-70
2022/04/06 01:26:11;;;;;;;15.00;11.43;;;;;;;4.70;79.66;98731.92;1653447;85;25769;-70
2022/04/06 01:28:39;;;;;;;17.50;11.68;;;;;;;4.73;79.70;98725.92;1670126;85;25944;-70
2022/04/06 01:31:06;;;;;;;24.30;12.75;;;;;;;4.79;80.23;98727.38;1647226;85;25589;-70
2022/04/06 01:33:33;;;;;;;16.55;9.85;;;;;;;4.82;80.01;98721.41;1658242;84;27361;-70
2022/04/06 01:36:01;;;;;;;17.77;10.72;;;;;;;4.87;80.10;98725.84;1662721;84;25470;-70
2022/04/06 01:38:28;;;;;;;14.90;11.35;;;;;;;4.91;79.85;98723.34;1655559;85;25728;-70
2022/04/06 01:40:55;;;;;;;16.45;11.22;;;;;;;4.96;79.60;98720.52;1653765;85;25811;-70
2022/04/06 01:43:23;;;;;;;20.02;11.18;;;;;;;4.99;80.19;98720.69;1624234;87;25750;-70
2022/04/06 01:45:50;;;;;;;16.20;11.12;;;;;;;5.02;80.18;98719.27;1657974;85;27393;-70
2022/04/06 01:48:17;;;;;;;18.70;11.75;;;;;;;5.05;80.77;98724.01;1651191;85;25837;-70
2022/04/06 01:53:31;;;;;;;16.52;10.93;;;;;;;5.08;80.65;98711.33;1655662;85;25537;-69
2022/04/06 01:55:58;;;;;;;17.25;11.48;;;;;;;5.10;80.86;98711.80;1654628;85;25866;-70
2022/04/06 01:58:25;;;;;;;18.82;11.48;;;;;;;5.11;80.69;98707.23;1657661;85;27333;-70
2022/04/06 02:00:53;;;;;;;17.92;12.47;;;;;;;5.12;80.44;98712.28;1652249;86;25538;-69
2022/04/06 02:03:19;;;;;;;18.85;13.70;;;;;;;5.14;80.41;98720.02;1653515;86;25444;-69
2022/04/06 02:05:46;;;;;;;18.15;11.88;;;;;;;5.16;80.58;98714.59;1626262;86;27813;-70
2022/04/06 02:08:13;;;;;;;21.73;13.32;;;;;;;5.17;80.50;98715.38;1672547;84;25883;-69
2022/04/06 02:10:40;;;;;;;19.45;11.78;;;;;;;5.17;80.47;98716.16;1658232;84;28019;-69
2022/04/06 02:13:07;;;;;;;15.15;11.63;;;;;;;5.19;80.34;98718.53;1671392;85;25760;-70
2022/04/06 02:15:33;;;;;;;18.45;12.60;;;;;;;5.22;80.44;98713.89;1663088;84;25848;-70
2022/04/06 02:18:01;;;;;;;20.32;12.70;;;;;;;5.23;81.14;98714.14;1660283;84;25424;-70
2022/04/06 02:20:27;;;;;;;19.85;13.62;;;;;;;5.24;80.63;98703.11;1663887;84;25482;-69
2022/04/06 02:22:54;;;;;;;17.40;12.55;;;;;;;5.27;80.54;98711.63;1663017;84;27338;-70
2022/04/06 02:25:20;;;;;;;17.37;11.95;;;;;;;5.28;80.58;98712.66;1670842;84;25853;-70
2022/04/06 02:27:52;;;;;;;20.60;13.95;;;;;;;5.31;80.55;98717.92;1660194;85;25757;-70
2022/04/06 02:30:20;;;;;;;22.30;14.03;;;;;;;5.33;80.69;98728.59;1662289;84;25897;-69
2022/04/06 02:32:47;;;;;;;24.55;18.48;;;;;;;5.34;80.72;98725.35;1661027;85;25825;-69
2022/04/06 02:35:14;;;;;;;24.90;18.70;;;;;;;5.35;80.67;98733.65;1664380;85;27390;-69
2022/04/06 02:37:41;;;;;;;27.85;19.60;;;;;;;5.34;80.67;98739.54;1659612;85;25866;-69
2022/04/06 02:40:10;;;;;;;27.60;19.23;;;;;;;5.35;80.64;98730.97;1662246;84;25922;-69
2022/04/06 02:42:37;;;;;;;25.68;18.67;;;;;;;5.34;80.52;98736.08;1664349;84;25609;-69
2022/04/06 02:45:04;;;;;;;25.68;18.17;;;;;;;5.33;80.54;98740.66;1664412;85;25478;-69
2022/04/06 02:47:30;;;;;;;18.35;15.13;;;;;;;5.30;80.33;98741.28;1658389;84;27602;-69
2022/04/06 02:49:56;;;;;;;19.23;15.00;;;;;;;5.24;80.16;98743.85;1656899;85;25839;-69
2022/04/06 02:52:23;;;;;;;21.35;14.47;;;;;;;5.15;79.62;98745.17;1658076;84;25425;-69
2022/04/06 02:54:49;;;;;;;18.65;13.75;;;;;;;5.07;79.33;98751.84;1639821;85;26231;-69
2022/04/06 02:57:16;;;;;;;18.60;13.58;;;;;;;4.99;79.12;98751.50;1650121;85;25863;-69
2022/04/06 02:59:42;;;;;;;17.30;13.25;;;;;;;4.91;79.06;98751.47;1660659;85;27382;-69
2022/04/06 03:02:08;;;;;;;19.00;12.90;;;;;;;4.83;78.95;98761.03;1665623;85;25783;-69
2022/04/06 03:04:34;;;;;;;18.00;12.45;;;;;;;4.78;78.95;98771.88;1658122;84;25826;-69
2022/04/06 03:07:00;;;;;;;19.82;12.90;;;;;;;4.72;78.90;98765.87;1665399;85;26168;-69
2022/04/06 03:09:26;;;;;;;16.50;11.88;;;;;;;4.68;78.86;98764.36;1663889;84;25774;-69
2022/04/06 03:11:52;;;;;;;20.48;12.30;;;;;;;4.64;78.87;98766.05;1651669;85;27946;-69
2022/04/06 03:14:19;;;;;;;17.20;11.78;;;;;;;4.61;78.85;98768.00;1666043;84;26486;-69
2022/04/06 03:16:45;;;;;;;20.88;11.95;;;;;;;4.58;78.96;98769.16;1662879;84;25747;-69
2022/04/06 03:19:11;;;;;;;19.95;12.93;;;;;;;4.56;79.09;98772.70;1660828;84;25839;-69
2022/04/06 03:21:38;;;;;;;17.42;12.20;;;;;;;4.52;79.09;98785.91;1661089;84;25431;-69
2022/04/06 03:24:06;;;;;;;15.88;11.80;;;;;;;4.48;79.21;98784.95;1663525;84;27929;-69
2022/04/06 03:26:32;;;;;;;21.85;13.48;;;;;;;4.45;79.29;98795.71;1663264;84;25824;-69
2022/04/06 03:28:59;;;;;;;17.70;12.60;;;;;;;4.42;79.40;98803.01;1668080;84;25911;-69
2022/04/06 03:31:25;;;;;;;17.10;11.48;;;;;;;4.40;79.32;98806.54;1663513;84;25626;-69
2022/04/06 03:33:52;;;;;;;19.17;12.65;;;;;;;4.37;79.43;98803.13;1656342;85;25868;-69
2022/04/06 03:36:18;;;;;;;18.42;12.23;;;;;;;4.35;79.42;98809.89;1664071;84;27461;-69
2022/04/06 03:38:44;;;;;;;21.55;12.53;;;;;;;4.33;79.40;98805.40;1664293;84;25831;-69
2022/04/06 03:41:11;;;;;;;18.23;12.00;;;;;;;4.30;79.47;98808.91;1659168;85;25500;-69
2022/04/06 03:43:38;;;;;;;18.10;12.15;;;;;;;4.26;79.49;98814.63;1663373;84;25813;-69
2022/04/06 03:46:04;;;;;;;20.25;12.03;;;;;;;4.24;79.53;98813.34;1664895;84;26044;-69
2022/04/06 03:48:31;;;;;;;18.07;12.60;;;;;;;4.22;79.65;98821.70;1659998;84;27303;-69
2022/04/06 03:50:57;;;;;;;20.77;12.28;;;;;;;4.20;79.86;98819.06;1663916;85;25496;-69
2022/04/06 03:53:23;;;;;;;23.38;12.23;;;;;;;4.17;79.87;98809.77;1670441;84;25922;-69
2022/04/06 03:55:50;;;;;;;19.77;12.82;;;;;;;4.18;79.84;98819.91;1667016;84;25937;-69
2022/04/06 03:58:16;;;;;;;19.07;13.05;;;;;;;4.15;79.89;98826.65;1661731;84;25472;-69
2022/04/06 04:00:43;;;;;;;19.82;13.00;;;;;;;4.17;79.78;98829.84;1664144;85;27346;-69
2022/04/06 04:03:10;;;;;;;23.18;13.58;;;;;;;4.17;79.98;98828.50;1670597;84;25803;-69
2022/04/06 04:05:36;;;;;;;22.75;13.95;;;;;;;4.16;80.03;98835.48;1666123;84;25854;-69
2022/04/06 04:08:05;;;;;;;23.50;13.53;;;;;;;4.13;80.14;98840.88;1661300;85;27820;-69
2022/04/06 04:10:31;;;;;;;20.30;12.80;;;;;;;4.11;80.28;98844.41;1665239;85;25502;-69
2022/04/06 04:12:58;;;;;;;18.00;12.78;;;;;;;4.09;80.32;98842.59;1657788;85;27324;-70
2022/04/06 04:15:24;;;;;;;22.25;13.22;;;;;;;4.08;80.41;98844.45;1667411;84;25819;-70
2022/04/06 07:43:32;;;;;;;15.53;9.35;;;;;;;5.32;80.67;98972.34;1617913;87;25627;-66
2022/04/06 07:45:58;;;;;;;11.08;8.58;;;;;;;5.35;81.00;98975.75;1613313;88;26285;-66
2022/04/06 07:48:27;;;;;;;11.97;9.33;;;;;;;5.41;81.40;98973.20;1609120;87;25560;-66
2022/04/06 07:50:55;;;;;;;15.05;9.68;;;;;;;5.47;81.27;98963.69;1612925;87;27545;-66
2022/04/06 07:53:21;;;;;;;15.55;10.75;;;;;;;5.48;81.09;98964.69;1604676;87;25621;-67
2022/04/06 07:55:49;;;;;;;14.90;9.50;;;;;;;5.51;80.82;98971.34;1624575;87;26066;-67
2022/04/06 07:58:18;;;;;;;14.50;9.68;;;;;;;5.52;80.73;98975.62;1628781;87;25914;-66
2022/04/06 08:00:46;;;;;;;14.40;9.95;;;;;;;5.54;81.20;98969.39;1616358;87;25740;-67
2022/04/06 08:03:13;;;;;;;13.03;9.63;;;;;;;5.61;81.17;98970.52;1613262;87;27353;-67
2022/04/06 08:05:39;;;;;;;16.48;9.83;;;;;;;5.67;80.97;98970.39;1609367;87;25862;-66
2022/04/06 08:08:07;;;;;;;12.95;8.38;;;;;;;5.71;81.25;98969.47;1612863;87;25767;-66
2022/04/06 08:10:33;;;;;;;11.45;8.43;;;;;;;5.76;80.80;98967.22;1612528;88;26558;-66
2022/04/06 08:13:00;;;;;;;11.10;7.70;;;;;;;5.73;80.49;98957.87;1608344;88;25597;-66
2022/04/06 08:15:27;;;;;;;10.93;9.23;;;;;;;5.78;80.71;98955.62;1610634;88;27917;-67
2022/04/06 08:17:54;;;;;;;11.38;8.73;;;;;;;5.84;81.14;98961.62;1610833;88;25990;-66
2022/04/06 08:20:21;;;;;;;17.25;11.68;;;;;;;5.86;80.30;98964.82;1610509;88;25447;-67
2022/04/06 08:23:09;;;;;;;16.10;11.50;;;;;;;5.86;81.12;98958.11;1611846;88;25885;-67
2022/04/06 08:25:45;;;;;;;10.35;8.55;;;;;;;5.97;81.71;98960.77;1596351;89;25858;-66
2022/04/06 08:28:11;;;;;;;10.13;7.92;;;;;;;6.01;81.15;98956.37;1582533;89;27375;-66
2022/04/06 08:30:42;;;;;;;11.65;8.18;;;;;;;6.04;80.78;98961.66;1594023;88;27148;-66
2022/04/06 08:33:10;;;;;;;10.40;8.08;;;;;;;6.03;80.70;98959.53;1584825;89;25896;-66
2022/04/06 08:35:38;;;;;;;10.03;7.83;;;;;;;6.04;80.71;98959.76;1579105;88;25797;-66
2022/04/06 08:38:05;;;;;;;8.93;7.20;;;;;;;6.08;80.87;98963.95;1590957;88;25997;-66
2022/04/06 08:40:33;;;;;;;7.42;6.50;;;;;;;6.14;80.88;98956.01;1586571;89;27414;-66
2022/04/06 08:43:00;;;;;;;10.60;7.92;;;;;;;6.12;80.34;98958.22;1584507;89;26148;-66
2022/04/06 08:45:28;;;;;;;9.38;8.18;;;;;;;6.06;80.00;98958.92;1585463;88;25894;-66
2022/04/06 08:47:57;;;;;;;9.70;7.00;;;;;;;6.04;80.03;98961.10;1588976;88;26043;-66
2022/04/06 08:50:27;;;;;;;10.60;8.37;;;;;;;5.99;80.25;98966.61;1602390;87;25959;-65
2022/04/06 08:52:57;;;;;;;12.18;8.35;;;;;;;5.94;79.94;98964.03;1613432;87;27324;-65
2022/04/06 08:55:24;;;;;;;14.47;11.22;;;;;;;5.92;80.31;98972.39;1613291;87;25760;-66
2022/04/06 08:57:51;;;;;;;16.30;11.73;;;;;;;5.87;79.82;98972.53;1632039;86;26446;-66
2022/04/06 09:00:18;;;;;;;15.72;11.65;;;;;;;5.78;79.80;98966.34;1633098;86;25886;-66
2022/04/06 09:02:46;;;;;;;19.80;12.35;;;;;;;5.72;80.00;98979.65;1631913;86;25944;-66
2022/04/06 09:05:12;;;;;;;15.50;12.90;;;;;;;5.68;80.28;98976.01;1628617;87;27345;-66
2022/04/06 09:07:40;;;;;;;18.25;13.43;;;;;;;5.58;80.38;98982.42;1628043;86;25954;-67
2022/04/06 09:10:08;;;;;;;18.07;13.85;;;;;;;5.55;80.68;98974.98;1629046;86;25868;-67
2022/04/06 09:12:35;;;;;;;20.97;14.33;;;;;;;5.49;80.81;98979.70;1628916;87;25636;-66
2022/04/06 09:15:27;;;;;;;17.32;13.65;;;;;;;5.49;81.28;98977.02;1610046;87;25859;-67
2022/04/06 09:17:53;;;;;;;20.08;14.75;;;;;;;5.46;81.33;98970.92;1632234;86;29569;-66
2022/04/06 09:20:25;;;;;;;21.60;14.87;;;;;;;5.50;81.76;98954.47;1624876;86;25821;-67
2022/04/06 09:22:51;;;;;;;19.85;13.72;;;;;;;5.48;81.65;98961.23;1631156;87;26030;-66
2022/04/06 09:25:20;;;;;;;15.35;12.23;;;;;;;5.47;81.93;98955.64;1630185;86;26314;-66
2022/04/06 09:27:47;;;;;;;16.40;11.80;;;;;;;5.36;81.52;98954.55;1628574;87;25570;-67
2022/04/06 09:30:14;;;;;;;18.40;12.25;;;;;;;5.33;81.84;98948.98;1630797;87;27396;-66
2022/04/06 09:32:41;;;;;;;16.90;12.13;;;;;;;5.35;82.55;98947.59;1632289;86;25935;-66
2022/04/06 09:35:29;;;;;;;15.90;12.07;;;;;;;5.35;82.44;98944.13;1630738;86;25845;-67
2022/04/06 09:38:25;;;;;;;17.20;12.07;;;;;;;5.28;82.28;98948.59;1633099;87;25730;-66
2022/04/06 09:41:06;;;;;;;15.05;11.30;;;;;;;5.21;82.27;98949.02;1630098;86;25947;-66
2022/04/06 09:43:34;;;;;;;18.77;13.35;;;;;;;5.18;82.61;98941.58;1633035;87;27393;-66
2022/04/06 09:49:19;;;;;;;22.25;14.15;;;;;;;5.26;83.47;98937.38;1605058;87;25882;-67
2022/04/06 09:51:52;;;;;;;17.23;13.10;;;;;;;5.22;83.43;98935.84;1607546;87;25894;-66
2022/04/06 09:54:20;;;;;;;19.50;14.60;;;;;;;5.19;83.41;98932.98;1605500;86;25629;-68
2022/04/06 09:56:46;;;;;;;17.65;12.85;;;;;;;5.21;84.00;98936.14;1608302;86;28095;-67
2022/04/06 09:59:15;;;;;;;19.00;13.45;;;;;;;5.18;83.84;98934.87;1615998;87;26357;-67
2022/04/06 10:01:52;;;;;;;20.17;14.60;;;;;;;5.14;83.78;98931.23;1624461;87;25856;-67
2022/04/06 10:04:25;;;;;;;17.60;12.55;;;;;;;5.12;84.04;98925.92;1605347;86;25846;-67
2022/04/06 10:06:52;;;;;;;18.87;14.65;;;;;;;5.10;84.07;98927.56;1610280;87;25751;-67
2022/04/06 10:09:20;;;;;;;18.87;13.50;;;;;;;5.12;84.40;98929.39;1594414;87;27582;-66
2022/04/06 10:11:46;;;;;;;20.02;14.58;;;;;;;5.13;84.39;98931.54;1597998;86;26128;-67
2022/04/06 10:14:12;;;;;;;18.85;14.20;;;;;;;5.14;84.52;98934.44;1604801;87;25644;-67
2022/04/06 10:16:39;;;;;;;18.80;13.98;;;;;;;5.19;84.71;98937.81;1601744;87;25945;-66
2022/04/06 10:19:14;;;;;;;21.33;14.18;;;;;;;5.22;84.73;98925.67;1609178;87;25980;-66
2022/04/06 10:21:58;;;;;;;19.77;14.47;;;;;;;5.24;84.89;98908.72;1627338;86;27542;-66
2022/04/06 10:24:31;;;;;;;21.37;13.83;;;;;;;5.26;85.14;98923.98;1585627;87;25537;-66
2022/04/06 10:27:11;;;;;;;19.35;13.93;;;;;;;5.29;85.46;98943.45;1605250;87;25896;-66
2022/04/06 10:30:19;;;;;;;19.75;14.25;;;;;;;5.35;85.68;98926.70;1604875;88;26436;-66
2022/04/06 10:32:48;;;;;;;18.50;13.45;;;;;;;5.42;85.73;98977.45;1601238;87;25941;-66
2022/04/06 10:35:35;;;;;;;;;;;;;;;5.50;85.99;98945.08;1629046;86;27329;-67
2022/04/06 10:41:03;;;;;;;20.82;13.22;;;;;;;5.57;85.69;98929.33;1528635;92;25991;-67
2022/04/06 10:43:41;;;;;;;19.20;14.10;;;;;;;5.62;85.57;98937.80;1518191;92;25812;-67
2022/04/06 10:46:09;;;;;;;17.95;13.35;;;;;;;5.68;85.75;98930.41;1523231;91;25561;-67
2022/04/06 10:48:55;;;;;;;19.40;14.05;;;;;;;5.72;85.57;98924.64;1532906;91;28175;-67
2022/04/06 10:51:33;;;;;;;20.68;14.18;;;;;;;5.76;85.88;98921.05;1532030;91;25956;-66
2022/04/06 10:54:02;;;;;;;20.10;13.95;;;;;;;5.85;86.01;98916.27;1539159;91;25950;-66
2022/04/06 10:56:55;;;;;;;19.40;13.83;;;;;;;5.87;85.69;98924.23;1532229;91;25936;-66
2022/04/06 10:59:24;;;;;;;17.23;12.65;;;;;;;5.91;85.97;98922.52;1537237;91;25947;-65
2022/04/06 11:02:19;;;;;;;17.27;13.70;;;;;;;5.97;85.93;98913.23;1533081;91;27376;-66
2022/04/06 11:04:46;;;;;;;21.55;15.30;;;;;;;6.06;86.57;98908.45;1523779;92;25969;-66
2022/04/06 11:07:15;;;;;;;20.60;15.60;;;;;;;6.24;87.82;98911.97;1505239;94;25666;-67
2022/04/06 11:12:33;;;;;;;18.50;13.93;;;;;;;6.52;87.77;98902.52;1540832;91;25874;-67
2022/04/06 11:15:05;;;;;;;17.92;13.93;;;;;;;6.61;87.43;98901.18;1540755;91;27181;-67
2022/04/06 11:17:34;;;;;;;22.17;14.55;;;;;;;6.64;86.68;98895.18;1527898;91;25751;-67
2022/04/06 11:20:08;;;;;;;20.05;15.53;;;;;;;6.73;87.65;98893.27;1554350;90;25883;-67
2022/04/06 11:22:53;;;;;;;21.37;15.88;;;;;;;6.96;88.42;98893.08;1548649;91;25775;-68
2022/04/06 11:25:22;;;;;;;22.93;15.85;;;;;;;7.16;88.54;98892.19;1601383;88;25585;-67
2022/04/06 11:27:49;;;;;;;22.80;16.23;;;;;;;7.28;87.68;98893.09;1615973;87;27421;-68
2022/04/06 11:30:20;;;;;;;24.18;16.42;;;;;;;7.31;86.73;98896.27;1608258;87;26448;-67
2022/04/06 11:32:59;;;;;;;23.62;16.80;;;;;;;7.27;86.32;98890.72;1619741;87;25821;-67
2022/04/06 11:35:36;;;;;;;22.30;17.27;;;;;;;7.25;86.30;98883.53;1613891;87;25617;-66
2022/04/06 11:38:08;;;;;;;23.00;17.70;;;;;;;7.29;86.94;98882.58;1608382;86;25962;-70
2022/04/06 11:40:39;;;;;;;24.18;18.10;;;;;;;7.34;86.76;98882.97;1616835;87;27341;-66
2022/04/06 11:43:06;;;;;;;24.85;17.75;;;;;;;7.36;86.81;98874.58;1620398;87;25962;-66
2022/04/06 11:45:44;;;;;;;21.90;17.80;;;;;;;7.43;87.51;98876.98;1628568;87;26237;-66
2022/04/06 11:48:15;;;;;;;24.37;18.65;;;;;;;7.47;87.55;98873.91;1707132;81;25744;-67
2022/04/06 11:50:48;;;;;;;26.23;19.48;;;;;;;7.54;87.79;98874.72;1696818;83;25877;-67
2022/04/06 11:53:18;;;;;;;25.37;18.95;;;;;;;7.64;88.29;98874.39;1695510;83;29044;-67
2022/04/06 11:55:51;;;;;;;25.85;19.60;;;;;;;7.74;88.55;98875.91;1657038;85;25895;-67
2022/04/06 11:58:39;;;;;;;26.60;21.30;;;;;;;7.86;88.53;98875.99;1657339;85;25936;-67
2022/04/06 12:01:15;;;;;;;27.65;20.48;;;;;;;7.91;88.29;98872.33;1697335;83;26465;-67
2022/04/06 12:03:44;;;;;;;31.60;22.50;;;;;;;7.98;88.02;98876.64;1705523;82;25677;-66
2022/04/06 12:06:17;;;;;;;27.95;22.30;;;;;;;8.05;88.36;98873.44;1705852;83;28277;-67
2022/04/06 12:08:46;;;;;;;27.98;21.68;;;;;;;8.09;88.11;98870.34;1706190;83;25747;-66
2022/04/06 12:11:14;;;;;;;29.15;21.97;;;;;;;8.13;88.03;98864.52;1705293;82;25767;-66
2022/04/06 12:13:42;;;;;;;31.87;22.22;;;;;;;8.21;88.38;98869.06;1712244;81;25815;-68
2022/04/06 12:16:09;;;;;;;30.88;23.02;;;;;;;8.27;88.93;98869.65;1715261;81;25692;-67
2022/04/06 12:18:40;;;;;;;30.62;23.05;;;;;;;8.31;88.75;98859.00;1711280;81;27388;-67
2022/04/06 12:21:25;;;;;;;33.42;23.85;;;;;;;8.41;88.96;98861.30;1717464;82;25797;-66
2022/04/06 12:23:53;;;;;;;31.02;23.20;;;;;;;8.50;89.23;98861.28;1730803;81;25877;-67
2022/04/06 12:26:22;;;;;;;35.00;24.95;;;;;;;8.60;89.52;98854.14;1732342;81;25757;-67
2022/04/06 12:28:52;;;;;;;32.17;25.50;;;;;;;8.82;90.17;98862.43;1717929;81;25848;-67
2022/04/06 12:31:22;;;;;;;;;;;;;;;9.01;90.65;98864.63;1731241;81;28064;-66
2022/04/06 12:33:51;;;;;;;31.60;23.75;;;;;;;9.20;90.69;98868.14;1737003;81;25899;-67
2022/04/06 12:36:42;;;;;;;29.95;23.92;;;;;;;9.29;90.11;98858.03;1736661;81;25820;-69
2022/04/06 12:39:14;;;;;;;29.95;24.07;;;;;;;9.36;89.97;98864.23;1707879;81;25729;-66
2022/04/06 12:42:05;;;;;;;28.60;23.25;;;;;;;9.42;89.76;98867.52;1710753;81;25551;-66
2022/04/06 12:44:34;;;;;;;31.10;23.75;;;;;;;9.46;89.95;98869.19;1720258;81;27410;-66
2022/04/06 12:47:03;;;;;;;28.25;22.60;;;;;;;9.50;89.91;98859.31;1719220;81;25676;-67
2022/04/06 12:49:42;;;;;;;32.30;23.50;;;;;;;9.58;90.28;98864.94;1723913;81;25856;-67
2022/04/06 12:52:18;;;;;;;32.00;24.25;;;;;;;9.62;90.11;98860.42;1713686;82;25832;-67
2022/04/06 12:54:55;;;;;;;28.00;23.18;;;;;;;9.66;89.94;98864.04;1715964;81;25445;-67
2022/04/06 12:57:31;;;;;;;26.10;21.60;;;;;;;9.73;90.19;98864.26;1724198;81;27344;-67
2022/04/06 13:00:03;;;;;;;30.70;22.58;;;;;;;9.77;89.86;98871.90;1728609;80;25858;-67
2022/04/06 13:02:48;;;;;;;28.57;23.18;;;;;;;9.82;90.24;98871.67;1700173;81;25845;-67
2022/04/06 13:05:20;;;;;;;33.38;24.37;;;;;;;9.90;90.23;98865.37;1727199;80;26259;-67
2022/04/06 13:07:50;;;;;;;28.83;23.07;;;;;;;10.07;90.70;98872.44;1718941;81;25875;-68
2022/04/06 13:10:29;;;;;;;22.40;19.05;;;;;;;10.23;90.78;98870.39;1682539;82;27394;-68
2022/04/06 13:12:57;;;;;;;20.52;16.20;;;;;;;10.35;90.00;98869.61;1638735;85;25708;-68
2022/04/06 13:15:24;;;;;;;20.25;16.93;;;;;;;10.46;89.33;98866.08;1663541;84;25690;-68
2022/04/06 13:17:51;;;;;;;19.65;14.80;;;;;;;10.57;89.19;98866.41;1716165;82;26454;-68
2022/04/06 13:20:20;;;;;;;14.50;12.80;;;;;;;10.70;88.71;98865.78;1715221;82;25863;-68
2022/04/06 13:22:49;;;;;;;10.50;9.03;;;;;;;10.82;88.10;98869.00;1717701;81;27417;-68
2022/04/06 13:25:16;;;;;;;11.08;9.93;;;;;;;10.91;86.92;98858.02;1715203;81;25694;-68
2022/04/06 13:27:44;;;;;;;11.28;8.70;;;;;;;11.02;85.96;98862.59;1710387;82;25844;-67
2022/04/06 13:30:13;;;;;;;10.38;8.43;;;;;;;11.14;85.19;98866.37;1711746;81;25880;-66
2022/04/06 13:32:42;;;;;;;7.72;7.03;;;;;;;11.27;85.01;98866.52;1703465;81;25608;-66
2022/04/06 13:35:09;;;;;;;11.38;8.13;;;;;;;11.42;82.81;98856.03;1714369;82;27518;-66
2022/04/06 13:37:37;;;;;;;10.68;8.25;;;;;;;11.56;83.36;98853.66;1714993;82;25832;-66
2022/04/06 13:40:05;;;;;;;9.50;7.42;;;;;;;11.71;82.73;98848.83;1681472;83;25702;-66
2022/04/06 13:42:32;;;;;;;9.78;7.72;;;;;;;11.86;81.59;98847.21;1711923;82;25776;-66
2022/04/06 13:44:58;;;;;;;9.78;8.08;;;;;;;12.06;81.98;98856.78;1686707;83;25868;-66
2022/04/06 13:47:25;;;;;;;9.70;7.25;;;;;;;12.25;81.64;98857.38;1683435;83;28040;-66
2022/04/06 13:49:51;;;;;;;8.40;7.28;;;;;;;12.36;80.87;98851.63;1680471;84;27250;-66
2022/04/06 13:52:18;;;;;;;11.30;7.85;;;;;;;12.40;78.98;98861.19;1679693;84;25742;-66
2022/04/06 13:54:44;;;;;;;8.88;7.45;;;;;;;12.30;77.73;98867.95;1661825;85;25867;-67
2022/04/06 13:57:11;;;;;;;10.75;7.80;;;;;;;12.16;76.93;98849.45;1675469;84;25724;-67
2022/04/06 13:59:38;;;;;;;9.05;7.92;;;;;;;12.07;76.57;98857.79;1718593;81;28411;-66
2022/04/06 14:02:04;;;;;;;11.53;7.83;;;;;;;11.96;77.12;98855.41;1714223;82;25846;-67
2022/04/06 14:04:31;;;;;;;12.63;9.30;;;;;;;11.86;76.78;98849.14;1709395;82;25737;-67
2022/04/06 14:06:58;;;;;;;10.45;8.15;;;;;;;11.76;76.95;98845.85;1711238;82;25727;-67
2022/04/06 14:09:24;;;;;;;10.63;8.05;;;;;;;11.65;76.32;98852.93;1715287;82;25829;-66
2022/04/06 14:11:52;;;;;;;11.75;8.65;;;;;;;11.51;75.98;98853.38;1712750;82;27375;-66
2022/04/06 14:14:18;;;;;;;13.35;8.48;;;;;;;11.43;76.58;98855.69;1695277;83;25759;-66
2022/04/06 14:16:45;;;;;;;13.28;9.00;;;;;;;11.36;76.88;98853.59;1694217;83;25914;-66
2022/04/06 14:19:12;;;;;;;13.78;8.65;;;;;;;11.31;76.64;98857.91;1713918;83;25915;-66
2022/04/06 14:21:38;;;;;;;11.18;8.45;;;;;;;11.27;76.77;98853.53;1745668;80;25912;-66
2022/04/06 14:24:07;;;;;;;14.38;9.70;;;;;;;11.23;76.78;98853.45;1718715;81;27293;-66
2022/04/06 14:26:35;;;;;;;10.88;8.43;;;;;;;11.20;76.94;98851.44;1734423;80;25862;-66
2022/04/06 14:29:02;;;;;;;12.73;8.98;;;;;;;11.16;76.78;98846.51;1707456;82;26457;-66
2022/04/06 14:31:29;;;;;;;9.80;8.40;;;;;;;11.14;76.82;98840.66;1718681;82;25680;-67
2022/04/06 14:33:57;;;;;;;10.82;8.78;;;;;;;11.10;76.99;98842.47;1710918;81;25925;-67
2022/04/06 14:36:23;;;;;;;10.10;8.20;;;;;;;11.08;77.03;98840.69;1681775;84;27318;-67
2022/04/06 14:38:50;;;;;;;11.75;8.98;;;;;;;11.06;77.18;98836.20;1699859;83;26336;-67
2022/04/06 14:41:17;;;;;;;10.48;8.55;;;;;;;11.02;77.27;98836.11;1714515;82;25562;-67
2022/04/06 14:43:43;;;;;;;13.00;8.45;;;;;;;11.00;77.55;98839.73;1692841;82;26253;-65
2022/04/06 14:46:10;;;;;;;11.70;9.03;;;;;;;10.96;77.62;98829.37;1688240;81;25834;-66
2022/04/06 14:48:37;;;;;;;12.07;8.70;;;;;;;10.94;77.69;98826.23;1710467;82;27322;-66
2022/04/06 14:51:03;;;;;;;10.43;8.40;;;;;;;10.90;77.81;98828.84;1717786;81;26211;-66
2022/04/06 14:53:30;;;;;;;12.30;9.10;;;;;;;10.88;77.98;98828.95;1672003;84;25801;-66
2022/04/06 14:55:56;;;;;;;13.45;9.20;;;;;;;10.82;78.18;98829.20;1683379;84;26364;-66
2022/04/06 14:58:22;;;;;;;12.50;9.93;;;;;;;10.78;78.17;98820.22;1674421;84;25649;-67
2022/04/06 15:00:49;;;;;;;16.55;11.00;;;;;;;10.76;78.50;98821.69;1684642;84;28204;-67
2022/04/06 15:03:16;;;;;;;11.10;9.10;;;;;;;10.71;78.80;98824.09;1670282;84;27215;-67
2022/04/06 15:05:43;;;;;;;15.90;10.00;;;;;;;10.69;78.98;98820.16;1678879;83;25813;-66
2022/04/06 15:08:13;;;;;;;20.05;11.45;;;;;;;10.64;78.89;98825.23;1679702;83;25583;-67
2022/04/06 15:10:43;;;;;;;19.02;10.23;;;;;;;10.63;78.82;98830.44;1718656;82;25875;-66
2022/04/06 15:13:10;;;;;;;13.53;10.00;;;;;;;10.63;78.90;98834.50;1714412;82;27327;-67
2022/04/06 15:15:38;;;;;;;16.37;10.10;;;;;;;10.67;78.76;98837.30;1720355;82;25797;-66
2022/04/06 15:18:06;;;;;;;14.70;10.85;;;;;;;10.70;78.48;98829.27;1695488;82;25886;-67